sensor_id;sensor_type;location;lat;lon;timestamp;temperature;humidity
12811;DHT22;6470;47.654;7.896;2023-05-29T00:01:14;15.90;99.90
12811;DHT22;6470;47.654;7.896;2023-05-29T00:03:44;16.10;99.90
12811;DHT22;6470;47.654;7.896;2023-05-29T00:08:36;11.50;99.90
12811;DHT22;6470;47.654;7.896;2023-05-29T00:11:02;15.90;99.90
12811;DHT22;6470;47.654;7.896;2023-05-29T00:13:27;15.90;99.90
12811;DHT22;6470;47.654;7.896;2023-05-29T00:15:53;15.80;99.90
12811;DHT22;6470;47.654;7.896;2023-05-29T00:18:19;15.40;99.90
12811;DHT22;6470;47.654;7.896;2023-05-29T00:20:44;11.80;99.90
12811;DHT22;6470;47.654;7.896;2023-05-29T00:23:10;15.80;99.90
12811;DHT22;6470;47.654;7.896;2023-05-29T00:25:36;15.90;99.90
12811;DHT22;6470;47.654;7.896;2023-05-29T00:28:02;16.20;99.90
12811;DHT22;6470;47.654;7.896;2023-05-29T00:30:27;16.80;99.90
12811;DHT22;6470;47.654;7.896;2023-05-29T00:32:53;16.70;99.90
12811;DHT22;6470;47.654;7.896;2023-05-29T00:35:19;16.40;99.90
12811;DHT22;6470;47.654;7.896;2023-05-29T00:37:45;15.80;99.90
12811;DHT22;6470;47.654;7.896;2023-05-29T00:42:37;15.50;99.90
12811;DHT22;6470;47.654;7.896;2023-05-29T00:47:29;16.40;99.90
12811;DHT22;6470;47.654;7.896;2023-05-29T00:49:58;16.10;99.90
12811;DHT22;6470;47.654;7.896;2023-05-29T00:52:25;16.00;99.90
12811;DHT22;6470;47.654;7.896;2023-05-29T00:54:51;15.90;99.90
12811;DHT22;6470;47.654;7.896;2023-05-29T00:59:45;15.30;99.90
12811;DHT22;6470;47.654;7.896;2023-05-29T01:02:12;15.90;99.90
12811;DHT22;6470;47.654;7.896;2023-05-29T01:04:39;15.00;99.90
12811;DHT22;6470;47.654;7.896;2023-05-29T01:07:05;15.40;99.90
12811;DHT22;6470;47.654;7.896;2023-05-29T01:09:32;15.90;99.90
12811;DHT22;6470;47.654;7.896;2023-05-29T01:12:03;15.30;99.90
12811;DHT22;6470;47.654;7.896;2023-05-29T01:17:17;15.20;99.90
12811;DHT22;6470;47.654;7.896;2023-05-29T01:20:01;15.40;99.90
12811;DHT22;6470;47.654;7.896;2023-05-29T01:28:04;13.10;99.90
12811;DHT22;6470;47.654;7.896;2023-05-29T01:30:32;15.20;99.90
12811;DHT22;6470;47.654;7.896;2023-05-29T01:32:59;15.20;99.90
12811;DHT22;6470;47.654;7.896;2023-05-29T01:35:25;15.30;99.90
12811;DHT22;6470;47.654;7.896;2023-05-29T01:37:50;10.30;99.90
12811;DHT22;6470;47.654;7.896;2023-05-29T01:40:16;15.60;99.90
12811;DHT22;6470;47.654;7.896;2023-05-29T01:42:42;16.00;99.90
12811;DHT22;6470;47.654;7.896;2023-05-29T01:45:09;15.60;99.90
12811;DHT22;6470;47.654;7.896;2023-05-29T01:50:04;10.40;99.90
12811;DHT22;6470;47.654;7.896;2023-05-29T01:52:31;15.30;99.90
12811;DHT22;6470;47.654;7.896;2023-05-29T01:54:56;15.80;99.90
12811;DHT22;6470;47.654;7.896;2023-05-29T01:57:22;15.70;99.90
12811;DHT22;6470;47.654;7.896;2023-05-29T01:59:49;15.40;99.90
12811;DHT22;6470;47.654;7.896;2023-05-29T02:07:07;15.80;99.90
12811;DHT22;6470;47.654;7.896;2023-05-29T02:09:35;15.20;99.90
12811;DHT22;6470;47.654;7.896;2023-05-29T02:12:01;15.60;99.90
12811;DHT22;6470;47.654;7.896;2023-05-29T02:14:27;16.30;99.90
12811;DHT22;6470;47.654;7.896;2023-05-29T02:16:53;14.90;99.90
12811;DHT22;6470;47.654;7.896;2023-05-29T02:19:19;16.00;99.90
12811;DHT22;6470;47.654;7.896;2023-05-29T02:21:46;15.70;99.90
12811;DHT22;6470;47.654;7.896;2023-05-29T02:26:38;14.70;99.90
12811;DHT22;6470;47.654;7.896;2023-05-29T02:29:04;15.60;99.90
12811;DHT22;6470;47.654;7.896;2023-05-29T02:41:17;15.30;99.90
12811;DHT22;6470;47.654;7.896;2023-05-29T02:43:42;12.40;99.90
12811;DHT22;6470;47.654;7.896;2023-05-29T02:46:08;14.70;99.90
12811;DHT22;6470;47.654;7.896;2023-05-29T02:48:34;15.60;99.90
12811;DHT22;6470;47.654;7.896;2023-05-29T02:53:25;14.80;99.90
12811;DHT22;6470;47.654;7.896;2023-05-29T02:55:51;15.70;99.90
12811;DHT22;6470;47.654;7.896;2023-05-29T02:58:17;14.90;99.90
12811;DHT22;6470;47.654;7.896;2023-05-29T03:03:08;12.50;99.90
12811;DHT22;6470;47.654;7.896;2023-05-29T03:05:34;12.30;99.90
12811;DHT22;6470;47.654;7.896;2023-05-29T03:08:00;12.20;99.90
12811;DHT22;6470;47.654;7.896;2023-05-29T03:10:26;12.20;99.90
12811;DHT22;6470;47.654;7.896;2023-05-29T03:15:18;12.50;99.90
12811;DHT22;6470;47.654;7.896;2023-05-29T03:17:46;12.30;99.90
12811;DHT22;6470;47.654;7.896;2023-05-29T03:20:12;12.00;99.90
12811;DHT22;6470;47.654;7.896;2023-05-29T03:25:05;11.90;99.90
12811;DHT22;6470;47.654;7.896;2023-05-29T03:27:31;12.40;99.90
12811;DHT22;6470;47.654;7.896;2023-05-29T03:29:58;12.20;99.90
12811;DHT22;6470;47.654;7.896;2023-05-29T03:32:24;11.10;99.90
12811;DHT22;6470;47.654;7.896;2023-05-29T03:34:50;11.00;99.90
12811;DHT22;6470;47.654;7.896;2023-05-29T03:37:16;10.80;99.90
12811;DHT22;6470;47.654;7.896;2023-05-29T03:39:42;10.40;99.90
12811;DHT22;6470;47.654;7.896;2023-05-29T03:42:08;12.10;99.90
12811;DHT22;6470;47.654;7.896;2023-05-29T03:44:33;10.80;99.90
12811;DHT22;6470;47.654;7.896;2023-05-29T03:46:59;10.80;99.90
12811;DHT22;6470;47.654;7.896;2023-05-29T03:49:25;10.50;99.90
12811;DHT22;6470;47.654;7.896;2023-05-29T03:51:51;10.40;99.90
12811;DHT22;6470;47.654;7.896;2023-05-29T03:54:17;10.50;99.90
12811;DHT22;6470;47.654;7.896;2023-05-29T03:56:42;10.50;99.90
12811;DHT22;6470;47.654;7.896;2023-05-29T03:59:08;10.50;99.90
12811;DHT22;6470;47.654;7.896;2023-05-29T04:04:01;9.10;99.90
12811;DHT22;6470;47.654;7.896;2023-05-29T04:06:27;9.40;99.90
12811;DHT22;6470;47.654;7.896;2023-05-29T04:08:52;10.20;99.90
12811;DHT22;6470;47.654;7.896;2023-05-29T04:13:48;10.40;99.90
12811;DHT22;6470;47.654;7.896;2023-05-29T04:16:14;10.20;99.90
12811;DHT22;6470;47.654;7.896;2023-05-29T04:18:40;10.30;99.90
12811;DHT22;6470;47.654;7.896;2023-05-29T04:21:06;10.40;99.90
12811;DHT22;6470;47.654;7.896;2023-05-29T04:23:32;10.90;99.90
12811;DHT22;6470;47.654;7.896;2023-05-29T04:25:58;10.60;99.90
12811;DHT22;6470;47.654;7.896;2023-05-29T04:28:26;10.30;99.90
12811;DHT22;6470;47.654;7.896;2023-05-29T04:30:52;10.30;99.90
12811;DHT22;6470;47.654;7.896;2023-05-29T04:33:20;9.90;99.90
12811;DHT22;6470;47.654;7.896;2023-05-29T04:35:46;10.00;99.90
12811;DHT22;6470;47.654;7.896;2023-05-29T04:38:13;10.60;99.90
12811;DHT22;6470;47.654;7.896;2023-05-29T04:40:39;10.90;99.90
12811;DHT22;6470;47.654;7.896;2023-05-29T04:43:07;10.80;99.90
12811;DHT22;6470;47.654;7.896;2023-05-29T04:47:59;10.50;99.90
12811;DHT22;6470;47.654;7.896;2023-05-29T04:55:22;12.70;99.90
12811;DHT22;6470;47.654;7.896;2023-05-29T04:57:49;12.80;99.90
12811;DHT22;6470;47.654;7.896;2023-05-29T05:00:15;10.90;99.90
12811;DHT22;6470;47.654;7.896;2023-05-29T05:02:43;13.00;99.90
12811;DHT22;6470;47.654;7.896;2023-05-29T05:07:35;12.60;99.90
12811;DHT22;6470;47.654;7.896;2023-05-29T05:10:02;12.00;99.90
12811;DHT22;6470;47.654;7.896;2023-05-29T05:17:20;15.30;99.90
12811;DHT22;6470;47.654;7.896;2023-05-29T05:19:46;15.70;99.90
12811;DHT22;6470;47.654;7.896;2023-05-29T05:22:11;15.10;99.90
12811;DHT22;6470;47.654;7.896;2023-05-29T05:24:37;12.90;99.90
12811;DHT22;6470;47.654;7.896;2023-05-29T05:27:04;10.50;99.90
12811;DHT22;6470;47.654;7.896;2023-05-29T05:29:30;15.90;99.90
12811;DHT22;6470;47.654;7.896;2023-05-29T05:31:56;10.20;99.90
12811;DHT22;6470;47.654;7.896;2023-05-29T05:34:22;16.00;99.90
12811;DHT22;6470;47.654;7.896;2023-05-29T05:36:47;15.70;99.90
12811;DHT22;6470;47.654;7.896;2023-05-29T05:41:40;15.90;99.90
12811;DHT22;6470;47.654;7.896;2023-05-29T05:44:06;13.90;99.90
12811;DHT22;6470;47.654;7.896;2023-05-29T05:46:32;15.90;99.90
12811;DHT22;6470;47.654;7.896;2023-05-29T05:48:57;15.90;99.90
12811;DHT22;6470;47.654;7.896;2023-05-29T05:51:24;15.40;99.90
12811;DHT22;6470;47.654;7.896;2023-05-29T05:53:50;14.40;99.90
12811;DHT22;6470;47.654;7.896;2023-05-29T05:56:16;15.00;99.90
12811;DHT22;6470;47.654;7.896;2023-05-29T05:58:41;14.70;99.90
12811;DHT22;6470;47.654;7.896;2023-05-29T06:01:07;15.70;99.90
12811;DHT22;6470;47.654;7.896;2023-05-29T06:03:34;12.50;99.90
12811;DHT22;6470;47.654;7.896;2023-05-29T06:08:26;16.30;99.90
12811;DHT22;6470;47.654;7.896;2023-05-29T06:15:44;15.80;99.90
12811;DHT22;6470;47.654;7.896;2023-05-29T06:20:37;15.90;99.90
12811;DHT22;6470;47.654;7.896;2023-05-29T06:25:30;16.20;99.90
12811;DHT22;6470;47.654;7.896;2023-05-29T06:28:02;16.30;99.90
12811;DHT22;6470;47.654;7.896;2023-05-29T06:30:28;17.00;99.90
12811;DHT22;6470;47.654;7.896;2023-05-29T06:32:54;16.80;99.90
12811;DHT22;6470;47.654;7.896;2023-05-29T06:35:19;16.70;99.90
12811;DHT22;6470;47.654;7.896;2023-05-29T06:37:46;17.20;99.90
12811;DHT22;6470;47.654;7.896;2023-05-29T06:40:13;17.00;99.90
12811;DHT22;6470;47.654;7.896;2023-05-29T06:42:38;16.50;99.90
12811;DHT22;6470;47.654;7.896;2023-05-29T06:45:04;17.20;99.90
12811;DHT22;6470;47.654;7.896;2023-05-29T06:49:57;17.10;99.90
12811;DHT22;6470;47.654;7.896;2023-05-29T06:52:22;17.80;99.90
12811;DHT22;6470;47.654;7.896;2023-05-29T06:54:48;17.10;99.90
12811;DHT22;6470;47.654;7.896;2023-05-29T06:59:40;18.10;99.90
12811;DHT22;6470;47.654;7.896;2023-05-29T07:02:06;18.00;99.90
12811;DHT22;6470;47.654;7.896;2023-05-29T07:04:32;17.80;99.90
12811;DHT22;6470;47.654;7.896;2023-05-29T07:06:58;18.10;99.90
12811;DHT22;6470;47.654;7.896;2023-05-29T07:09:23;18.10;99.90
12811;DHT22;6470;47.654;7.896;2023-05-29T07:11:50;18.60;99.90
12811;DHT22;6470;47.654;7.896;2023-05-29T07:14:16;18.50;99.90
12811;DHT22;6470;47.654;7.896;2023-05-29T07:16:42;19.20;99.90
12811;DHT22;6470;47.654;7.896;2023-05-29T07:19:07;18.50;99.90
12811;DHT22;6470;47.654;7.896;2023-05-29T07:21:33;18.80;99.90
12811;DHT22;6470;47.654;7.896;2023-05-29T07:26:25;19.00;99.90
12811;DHT22;6470;47.654;7.896;2023-05-29T07:28:51;18.60;99.90
12811;DHT22;6470;47.654;7.896;2023-05-29T07:31:17;19.20;99.90
12811;DHT22;6470;47.654;7.896;2023-05-29T07:33:43;19.30;99.90
12811;DHT22;6470;47.654;7.896;2023-05-29T07:36:09;19.50;99.90
12811;DHT22;6470;47.654;7.896;2023-05-29T07:41:02;19.70;99.90
12811;DHT22;6470;47.654;7.896;2023-05-29T07:43:28;19.40;99.90
12811;DHT22;6470;47.654;7.896;2023-05-29T07:45:53;20.40;99.90
12811;DHT22;6470;47.654;7.896;2023-05-29T07:48:19;20.60;99.90
12811;DHT22;6470;47.654;7.896;2023-05-29T07:50:45;20.30;99.90
12811;DHT22;6470;47.654;7.896;2023-05-29T07:53:11;19.90;99.90
12811;DHT22;6470;47.654;7.896;2023-05-29T07:55:37;20.40;99.90
12811;DHT22;6470;47.654;7.896;2023-05-29T07:58:03;21.00;99.90
12811;DHT22;6470;47.654;7.896;2023-05-29T08:00:28;21.10;99.90
12811;DHT22;6470;47.654;7.896;2023-05-29T08:02:54;21.60;99.90
12811;DHT22;6470;47.654;7.896;2023-05-29T08:05:20;21.90;99.90
12811;DHT22;6470;47.654;7.896;2023-05-29T08:12:40;21.90;99.90
12811;DHT22;6470;47.654;7.896;2023-05-29T08:15:07;21.50;99.90
12811;DHT22;6470;47.654;7.896;2023-05-29T08:17:33;21.50;99.90
12811;DHT22;6470;47.654;7.896;2023-05-29T08:19:59;22.70;99.90
12811;DHT22;6470;47.654;7.896;2023-05-29T08:22:29;21.90;99.90
12811;DHT22;6470;47.654;7.896;2023-05-29T08:24:59;21.30;99.90
12811;DHT22;6470;47.654;7.896;2023-05-29T08:27:24;23.40;99.90
12811;DHT22;6470;47.654;7.896;2023-05-29T08:29:50;22.20;99.90
12811;DHT22;6470;47.654;7.896;2023-05-29T08:32:16;22.30;99.90
12811;DHT22;6470;47.654;7.896;2023-05-29T08:34:42;22.70;99.90
12811;DHT22;6470;47.654;7.896;2023-05-29T08:37:07;23.40;99.90
12811;DHT22;6470;47.654;7.896;2023-05-29T08:42:04;20.00;99.90
12811;DHT22;6470;47.654;7.896;2023-05-29T08:44:32;22.70;99.90
12811;DHT22;6470;47.654;7.896;2023-05-29T08:47:01;23.10;99.90
12811;DHT22;6470;47.654;7.896;2023-05-29T08:49:40;22.90;99.90
12811;DHT22;6470;47.654;7.896;2023-05-29T08:52:15;22.90;99.90
12811;DHT22;6470;47.654;7.896;2023-05-29T08:54:41;23.00;99.90
12811;DHT22;6470;47.654;7.896;2023-05-29T08:57:07;23.20;99.90
12811;DHT22;6470;47.654;7.896;2023-05-29T08:59:34;23.30;99.90
12811;DHT22;6470;47.654;7.896;2023-05-29T09:02:02;23.50;99.90
12811;DHT22;6470;47.654;7.896;2023-05-29T09:04:28;25.00;99.90
12811;DHT22;6470;47.654;7.896;2023-05-29T09:06:58;21.50;99.90
12811;DHT22;6470;47.654;7.896;2023-05-29T09:09:27;21.70;99.90
12811;DHT22;6470;47.654;7.896;2023-05-29T09:11:53;24.70;99.90
12811;DHT22;6470;47.654;7.896;2023-05-29T09:17:00;24.40;99.90
12811;DHT22;6470;47.654;7.896;2023-05-29T09:19:26;24.80;99.90
12811;DHT22;6470;47.654;7.896;2023-05-29T09:21:52;24.60;99.90
12811;DHT22;6470;47.654;7.896;2023-05-29T09:24:26;24.90;99.90
12811;DHT22;6470;47.654;7.896;2023-05-29T09:26:52;25.10;99.90
12811;DHT22;6470;47.654;7.896;2023-05-29T09:29:19;25.50;99.90
12811;DHT22;6470;47.654;7.896;2023-05-29T09:31:48;25.70;99.90
12811;DHT22;6470;47.654;7.896;2023-05-29T09:34:15;25.60;99.90
12811;DHT22;6470;47.654;7.896;2023-05-29T09:36:40;25.50;99.90
12811;DHT22;6470;47.654;7.896;2023-05-29T09:39:07;25.30;96.40
12811;DHT22;6470;47.654;7.896;2023-05-29T09:41:43;25.60;96.70
12811;DHT22;6470;47.654;7.896;2023-05-29T09:44:12;25.20;95.50
12811;DHT22;6470;47.654;7.896;2023-05-29T09:46:39;25.50;95.90
12811;DHT22;6470;47.654;7.896;2023-05-29T09:49:11;26.70;96.60
12811;DHT22;6470;47.654;7.896;2023-05-29T09:51:37;23.50;93.20
12811;DHT22;6470;47.654;7.896;2023-05-29T09:54:23;26.00;93.80
12811;DHT22;6470;47.654;7.896;2023-05-29T09:56:50;25.90;93.50
12811;DHT22;6470;47.654;7.896;2023-05-29T09:59:16;26.10;93.70
12811;DHT22;6470;47.654;7.896;2023-05-29T10:01:44;27.10;95.50
12811;DHT22;6470;47.654;7.896;2023-05-29T10:04:10;26.80;93.90
12811;DHT22;6470;47.654;7.896;2023-05-29T10:06:46;27.70;92.70
12811;DHT22;6470;47.654;7.896;2023-05-29T10:09:16;27.60;92.30
12811;DHT22;6470;47.654;7.896;2023-05-29T10:11:44;26.70;90.90
12811;DHT22;6470;47.654;7.896;2023-05-29T10:14:18;26.30;91.40
12811;DHT22;6470;47.654;7.896;2023-05-29T10:16:49;26.70;86.70
12811;DHT22;6470;47.654;7.896;2023-05-29T10:19:24;27.50;90.60
12811;DHT22;6470;47.654;7.896;2023-05-29T10:21:52;27.90;91.10
12811;DHT22;6470;47.654;7.896;2023-05-29T10:24:19;26.70;90.90
12811;DHT22;6470;47.654;7.896;2023-05-29T10:26:47;27.90;89.90
12811;DHT22;6470;47.654;7.896;2023-05-29T10:39:47;27.00;80.50
12811;DHT22;6470;47.654;7.896;2023-05-29T10:42:41;26.20;77.00
12811;DHT22;6470;47.654;7.896;2023-05-29T10:45:08;26.30;78.40
12811;DHT22;6470;47.654;7.896;2023-05-29T10:47:35;26.20;78.90
12811;DHT22;6470;47.654;7.896;2023-05-29T10:50:01;26.20;81.20
12811;DHT22;6470;47.654;7.896;2023-05-29T10:52:33;27.30;81.70
12811;DHT22;6470;47.654;7.896;2023-05-29T10:55:00;26.30;80.30
12811;DHT22;6470;47.654;7.896;2023-05-29T10:57:29;27.60;82.90
12811;DHT22;6470;47.654;7.896;2023-05-29T11:00:16;26.80;77.50
12811;DHT22;6470;47.654;7.896;2023-05-29T11:02:44;27.70;76.80
12811;DHT22;6470;47.654;7.896;2023-05-29T11:05:21;26.50;73.50
12811;DHT22;6470;47.654;7.896;2023-05-29T11:08:00;27.30;75.60
12811;DHT22;6470;47.654;7.896;2023-05-29T11:10:44;24.40;71.50
12811;DHT22;6470;47.654;7.896;2023-05-29T11:13:10;26.60;71.40
12811;DHT22;6470;47.654;7.896;2023-05-29T11:15:37;26.60;71.80
12811;DHT22;6470;47.654;7.896;2023-05-29T11:18:09;26.50;72.30
12811;DHT22;6470;47.654;7.896;2023-05-29T11:20:44;27.10;74.00
12811;DHT22;6470;47.654;7.896;2023-05-29T11:23:17;26.60;74.20
12811;DHT22;6470;47.654;7.896;2023-05-29T11:25:44;26.90;69.50
12811;DHT22;6470;47.654;7.896;2023-05-29T11:28:12;27.10;67.60
12811;DHT22;6470;47.654;7.896;2023-05-29T11:30:57;26.60;73.50
12811;DHT22;6470;47.654;7.896;2023-05-29T11:33:27;27.60;68.40
12811;DHT22;6470;47.654;7.896;2023-05-29T11:35:58;26.80;68.60
12811;DHT22;6470;47.654;7.896;2023-05-29T11:38:25;27.20;70.10
12811;DHT22;6470;47.654;7.896;2023-05-29T11:40:53;27.00;70.60
12811;DHT22;6470;47.654;7.896;2023-05-29T11:43:20;27.50;70.60
12811;DHT22;6470;47.654;7.896;2023-05-29T11:45:45;26.00;69.30
12811;DHT22;6470;47.654;7.896;2023-05-29T11:48:11;24.10;68.90
12811;DHT22;6470;47.654;7.896;2023-05-29T11:50:37;28.40;74.90
12811;DHT22;6470;47.654;7.896;2023-05-29T11:53:02;28.50;72.80
12811;DHT22;6470;47.654;7.896;2023-05-29T11:55:28;28.10;74.10
12811;DHT22;6470;47.654;7.896;2023-05-29T11:58:01;28.00;74.10
12811;DHT22;6470;47.654;7.896;2023-05-29T12:00:33;28.60;71.70
12811;DHT22;6470;47.654;7.896;2023-05-29T12:02:59;27.90;70.80
12811;DHT22;6470;47.654;7.896;2023-05-29T12:05:32;28.20;69.00
12811;DHT22;6470;47.654;7.896;2023-05-29T12:08:09;28.00;69.80
12811;DHT22;6470;47.654;7.896;2023-05-29T12:10:35;28.10;67.90
12811;DHT22;6470;47.654;7.896;2023-05-29T12:13:00;28.00;73.20
12811;DHT22;6470;47.654;7.896;2023-05-29T12:15:27;28.10;69.70
12811;DHT22;6470;47.654;7.896;2023-05-29T12:17:54;28.30;72.80
12811;DHT22;6470;47.654;7.896;2023-05-29T12:20:24;29.20;69.00
12811;DHT22;6470;47.654;7.896;2023-05-29T12:22:52;29.40;68.50
12811;DHT22;6470;47.654;7.896;2023-05-29T12:25:19;27.80;68.10
12811;DHT22;6470;47.654;7.896;2023-05-29T12:27:46;28.60;67.50
12811;DHT22;6470;47.654;7.896;2023-05-29T12:30:14;28.00;67.80
12811;DHT22;6470;47.654;7.896;2023-05-29T12:32:46;29.30;69.50
12811;DHT22;6470;47.654;7.896;2023-05-29T12:35:20;29.20;67.50
12811;DHT22;6470;47.654;7.896;2023-05-29T12:38:04;28.50;68.20
12811;DHT22;6470;47.654;7.896;2023-05-29T12:40:32;28.00;69.60
12811;DHT22;6470;47.654;7.896;2023-05-29T12:43:06;29.00;68.60
12811;DHT22;6470;47.654;7.896;2023-05-29T12:45:33;29.00;67.30
12811;DHT22;6470;47.654;7.896;2023-05-29T12:48:04;29.30;68.70
12811;DHT22;6470;47.654;7.896;2023-05-29T12:50:32;28.10;65.40
12811;DHT22;6470;47.654;7.896;2023-05-29T12:53:02;28.00;66.30
12811;DHT22;6470;47.654;7.896;2023-05-29T12:55:30;28.20;66.80
12811;DHT22;6470;47.654;7.896;2023-05-29T12:57:56;28.30;66.30
12811;DHT22;6470;47.654;7.896;2023-05-29T13:00:22;28.80;68.30
12811;DHT22;6470;47.654;7.896;2023-05-29T13:02:50;28.50;68.30
12811;DHT22;6470;47.654;7.896;2023-05-29T13:05:16;28.20;66.60
12811;DHT22;6470;47.654;7.896;2023-05-29T13:07:47;28.30;67.30
12811;DHT22;6470;47.654;7.896;2023-05-29T13:10:13;29.20;70.20
12811;DHT22;6470;47.654;7.896;2023-05-29T13:12:40;28.20;70.10
12811;DHT22;6470;47.654;7.896;2023-05-29T13:15:07;26.10;63.50
12811;DHT22;6470;47.654;7.896;2023-05-29T13:17:33;28.30;66.10
12811;DHT22;6470;47.654;7.896;2023-05-29T13:19:59;28.40;67.30
12811;DHT22;6470;47.654;7.896;2023-05-29T13:22:25;28.70;68.40
12811;DHT22;6470;47.654;7.896;2023-05-29T13:24:57;28.60;68.60
12811;DHT22;6470;47.654;7.896;2023-05-29T13:27:23;29.80;71.00
12811;DHT22;6470;47.654;7.896;2023-05-29T13:29:50;29.40;68.80
12811;DHT22;6470;47.654;7.896;2023-05-29T13:32:15;29.50;67.10
12811;DHT22;6470;47.654;7.896;2023-05-29T13:34:42;29.60;67.90
12811;DHT22;6470;47.654;7.896;2023-05-29T13:37:08;30.10;65.30
12811;DHT22;6470;47.654;7.896;2023-05-29T13:39:33;29.80;68.40
12811;DHT22;6470;47.654;7.896;2023-05-29T13:41:59;28.60;66.50
12811;DHT22;6470;47.654;7.896;2023-05-29T13:44:26;29.60;66.00
12811;DHT22;6470;47.654;7.896;2023-05-29T13:46:52;26.80;63.20
12811;DHT22;6470;47.654;7.896;2023-05-29T13:49:18;28.90;65.70
12811;DHT22;6470;47.654;7.896;2023-05-29T13:51:44;28.80;64.30
12811;DHT22;6470;47.654;7.896;2023-05-29T13:54:12;29.50;63.30
12811;DHT22;6470;47.654;7.896;2023-05-29T13:56:37;28.80;62.40
12811;DHT22;6470;47.654;7.896;2023-05-29T13:59:03;29.40;64.30
12811;DHT22;6470;47.654;7.896;2023-05-29T14:01:32;29.00;65.00
12811;DHT22;6470;47.654;7.896;2023-05-29T14:03:59;28.20;61.20
12811;DHT22;6470;47.654;7.896;2023-05-29T14:06:25;28.10;62.30
12811;DHT22;6470;47.654;7.896;2023-05-29T14:08:51;28.40;60.90
12811;DHT22;6470;47.654;7.896;2023-05-29T14:11:17;28.60;61.80
12811;DHT22;6470;47.654;7.896;2023-05-29T14:13:43;28.10;60.70
12811;DHT22;6470;47.654;7.896;2023-05-29T14:16:09;28.20;60.00
12811;DHT22;6470;47.654;7.896;2023-05-29T14:18:34;27.50;59.30
12811;DHT22;6470;47.654;7.896;2023-05-29T14:21:00;27.30;60.80
12811;DHT22;6470;47.654;7.896;2023-05-29T14:23:26;28.30;62.80
12811;DHT22;6470;47.654;7.896;2023-05-29T14:25:52;25.80;61.70
12811;DHT22;6470;47.654;7.896;2023-05-29T14:30:44;28.50;58.50
12811;DHT22;6470;47.654;7.896;2023-05-29T14:35:35;28.00;59.30
12811;DHT22;6470;47.654;7.896;2023-05-29T14:38:01;27.90;57.30
12811;DHT22;6470;47.654;7.896;2023-05-29T14:40:27;28.20;58.40
12811;DHT22;6470;47.654;7.896;2023-05-29T14:42:54;25.80;56.40
12811;DHT22;6470;47.654;7.896;2023-05-29T14:45:19;28.70;56.70
12811;DHT22;6470;47.654;7.896;2023-05-29T14:47:45;28.60;58.20
12811;DHT22;6470;47.654;7.896;2023-05-29T14:50:11;28.70;58.90
12811;DHT22;6470;47.654;7.896;2023-05-29T14:52:37;29.20;57.00
12811;DHT22;6470;47.654;7.896;2023-05-29T14:55:06;28.40;57.10
12811;DHT22;6470;47.654;7.896;2023-05-29T14:57:31;28.60;57.30
12811;DHT22;6470;47.654;7.896;2023-05-29T14:59:59;29.30;57.80
12811;DHT22;6470;47.654;7.896;2023-05-29T15:02:25;28.50;57.60
12811;DHT22;6470;47.654;7.896;2023-05-29T15:04:50;27.60;57.20
12811;DHT22;6470;47.654;7.896;2023-05-29T15:07:17;28.20;58.10
12811;DHT22;6470;47.654;7.896;2023-05-29T15:09:43;28.00;59.10
12811;DHT22;6470;47.654;7.896;2023-05-29T15:12:09;28.40;59.70
12811;DHT22;6470;47.654;7.896;2023-05-29T15:14:35;28.50;58.20
12811;DHT22;6470;47.654;7.896;2023-05-29T15:17:03;27.80;55.70
12811;DHT22;6470;47.654;7.896;2023-05-29T15:19:29;27.40;56.30
12811;DHT22;6470;47.654;7.896;2023-05-29T15:21:56;28.10;57.10
12811;DHT22;6470;47.654;7.896;2023-05-29T15:24:21;27.80;59.40
12811;DHT22;6470;47.654;7.896;2023-05-29T15:26:47;27.80;60.00
12811;DHT22;6470;47.654;7.896;2023-05-29T15:29:13;29.30;59.80
12811;DHT22;6470;47.654;7.896;2023-05-29T15:34:05;28.60;59.90
12811;DHT22;6470;47.654;7.896;2023-05-29T15:36:30;29.40;61.40
12811;DHT22;6470;47.654;7.896;2023-05-29T15:38:56;29.60;62.30
12811;DHT22;6470;47.654;7.896;2023-05-29T15:41:22;28.90;60.30
12811;DHT22;6470;47.654;7.896;2023-05-29T15:43:57;29.00;62.50
12811;DHT22;6470;47.654;7.896;2023-05-29T15:46:29;28.80;63.40
12811;DHT22;6470;47.654;7.896;2023-05-29T15:48:55;29.10;62.70
12811;DHT22;6470;47.654;7.896;2023-05-29T15:51:20;29.60;64.40
12811;DHT22;6470;47.654;7.896;2023-05-29T15:53:46;29.20;63.20
12811;DHT22;6470;47.654;7.896;2023-05-29T15:56:12;26.10;60.40
12811;DHT22;6470;47.654;7.896;2023-05-29T15:58:37;28.00;60.10
12811;DHT22;6470;47.654;7.896;2023-05-29T16:01:03;28.00;60.90
12811;DHT22;6470;47.654;7.896;2023-05-29T16:03:29;26.80;59.60
12811;DHT22;6470;47.654;7.896;2023-05-29T16:05:56;27.40;60.70
12811;DHT22;6470;47.654;7.896;2023-05-29T16:10:47;29.00;63.30
12811;DHT22;6470;47.654;7.896;2023-05-29T16:13:13;29.20;60.00
12811;DHT22;6470;47.654;7.896;2023-05-29T16:15:39;28.00;59.90
12811;DHT22;6470;47.654;7.896;2023-05-29T16:18:05;28.30;62.30
12811;DHT22;6470;47.654;7.896;2023-05-29T16:20:31;28.20;63.00
12811;DHT22;6470;47.654;7.896;2023-05-29T16:22:56;28.50;65.40
12811;DHT22;6470;47.654;7.896;2023-05-29T16:27:48;28.90;67.70
12811;DHT22;6470;47.654;7.896;2023-05-29T16:30:14;28.60;67.90
12811;DHT22;6470;47.654;7.896;2023-05-29T16:32:40;27.40;68.30
12811;DHT22;6470;47.654;7.896;2023-05-29T16:35:06;27.30;68.70
12811;DHT22;6470;47.654;7.896;2023-05-29T16:37:32;27.40;69.70
12811;DHT22;6470;47.654;7.896;2023-05-29T16:39:58;27.40;70.20
12811;DHT22;6470;47.654;7.896;2023-05-29T16:42:24;27.20;69.10
12811;DHT22;6470;47.654;7.896;2023-05-29T16:44:50;27.00;69.40
12811;DHT22;6470;47.654;7.896;2023-05-29T16:47:16;26.80;74.00
12811;DHT22;6470;47.654;7.896;2023-05-29T16:49:42;26.80;70.90
12811;DHT22;6470;47.654;7.896;2023-05-29T16:52:09;26.70;71.10
12811;DHT22;6470;47.654;7.896;2023-05-29T16:54:35;26.70;71.40
12811;DHT22;6470;47.654;7.896;2023-05-29T16:57:09;26.80;72.10
12811;DHT22;6470;47.654;7.896;2023-05-29T16:59:35;27.30;73.30
12811;DHT22;6470;47.654;7.896;2023-05-29T17:02:01;26.90;69.30
12811;DHT22;6470;47.654;7.896;2023-05-29T17:04:27;27.70;69.60
12811;DHT22;6470;47.654;7.896;2023-05-29T17:06:53;28.00;71.00
12811;DHT22;6470;47.654;7.896;2023-05-29T17:09:18;27.70;70.80
12811;DHT22;6470;47.654;7.896;2023-05-29T17:11:44;27.40;70.90
12811;DHT22;6470;47.654;7.896;2023-05-29T17:16:36;27.50;67.10
12811;DHT22;6470;47.654;7.896;2023-05-29T17:19:01;27.60;70.90
12811;DHT22;6470;47.654;7.896;2023-05-29T17:21:27;27.50;68.20
12811;DHT22;6470;47.654;7.896;2023-05-29T17:23:53;28.30;68.30
12811;DHT22;6470;47.654;7.896;2023-05-29T17:26:21;28.00;69.50
12811;DHT22;6470;47.654;7.896;2023-05-29T17:28:48;28.10;67.70
12811;DHT22;6470;47.654;7.896;2023-05-29T17:31:16;27.20;69.30
12811;DHT22;6470;47.654;7.896;2023-05-29T17:33:41;27.10;69.50
12811;DHT22;6470;47.654;7.896;2023-05-29T17:36:07;27.60;69.20
12811;DHT22;6470;47.654;7.896;2023-05-29T17:38:33;27.80;69.10
12811;DHT22;6470;47.654;7.896;2023-05-29T17:40:58;26.70;68.80
12811;DHT22;6470;47.654;7.896;2023-05-29T17:43:27;27.20;68.20
12811;DHT22;6470;47.654;7.896;2023-05-29T17:45:52;27.00;67.90
12811;DHT22;6470;47.654;7.896;2023-05-29T17:48:19;26.60;68.00
12811;DHT22;6470;47.654;7.896;2023-05-29T17:50:45;27.00;67.70
12811;DHT22;6470;47.654;7.896;2023-05-29T17:53:11;23.90;66.30